createdAt,value
2019-02-10T00:00:37.738Z,8.31
2019-02-10T00:01:37.555Z,8.32
2019-02-10T00:02:37.563Z,8.27
2019-02-10T00:03:37.538Z,8.25
2019-02-10T00:04:37.546Z,8.34
2019-02-10T00:05:37.517Z,8.34
2019-02-10T00:06:37.568Z,8.34
2019-02-10T00:07:37.495Z,8.42
2019-02-10T00:08:37.515Z,8.32
2019-02-10T00:09:37.475Z,8.42
2019-02-10T00:10:37.464Z,8.40
2019-02-10T00:11:37.483Z,8.36
2019-02-10T00:12:37.723Z,8.36
2019-02-10T00:13:37.440Z,8.46
2019-02-10T00:14:37.436Z,8.45
2019-02-10T00:15:37.409Z,8.47
2019-02-10T00:16:37.463Z,8.40
2019-02-10T00:17:37.384Z,8.43
2019-02-10T00:18:37.385Z,8.37
2019-02-10T00:19:37.362Z,8.43
2019-02-10T00:20:37.354Z,8.47
2019-02-10T00:21:37.361Z,8.47
2019-02-10T00:22:37.397Z,8.58
2019-02-10T00:23:37.325Z,8.55
2019-02-10T00:24:37.432Z,8.55
2019-02-10T00:25:37.327Z,8.54
2019-02-10T00:26:37.311Z,8.52
2019-02-10T00:27:37.377Z,8.50
2019-02-10T00:28:37.278Z,8.42
2019-02-10T00:29:37.256Z,8.47
2019-02-10T00:30:37.246Z,8.40
2019-02-10T00:31:37.241Z,8.40
2019-02-10T00:32:37.316Z,8.39
2019-02-10T00:33:37.215Z,8.37
2019-02-10T00:34:37.282Z,8.37
2019-02-10T00:35:37.194Z,8.37
2019-02-10T00:36:37.187Z,8.32
2019-02-10T00:37:37.181Z,8.34
2019-02-10T00:38:37.185Z,8.31
2019-02-10T00:39:37.161Z,8.40
2019-02-10T00:40:37.169Z,8.32
2019-02-10T00:41:37.129Z,8.39
2019-02-10T00:42:37.118Z,8.37
2019-02-10T00:43:37.150Z,8.29
2019-02-10T00:44:37.103Z,8.34
2019-02-10T00:45:37.097Z,8.40
2019-02-10T00:46:37.179Z,8.40
2019-02-10T00:47:37.105Z,8.39
2019-02-10T00:48:37.055Z,8.42
2019-02-10T00:49:37.068Z,8.47
2019-02-10T00:50:37.067Z,8.45
2019-02-10T00:51:37.020Z,8.47
2019-02-10T00:52:37.009Z,8.45
2019-02-10T00:53:37.018Z,8.49
2019-02-10T00:54:37.025Z,8.47
2019-02-10T00:55:37.026Z,8.36
2019-02-10T00:56:36.982Z,8.45
2019-02-10T00:57:36.979Z,8.45
2019-02-10T00:58:36.952Z,8.37
2019-02-10T00:59:37.040Z,8.40
2019-02-10T01:00:36.936Z,8.39
2019-02-10T01:01:36.917Z,8.43
2019-02-10T01:02:36.911Z,8.39
2019-02-10T01:03:36.890Z,8.37
2019-02-10T01:04:36.891Z,8.36
2019-02-10T01:05:37.011Z,8.29
2019-02-10T01:06:41.443Z,8.34
2019-02-10T01:07:36.852Z,8.34
2019-02-10T01:08:36.856Z,8.24
2019-02-10T01:09:36.830Z,8.37
2019-02-10T01:10:36.851Z,8.34
2019-02-10T01:11:36.809Z,8.31
2019-02-10T01:12:36.795Z,8.34
2019-02-10T01:13:36.871Z,8.32
2019-02-10T01:14:36.829Z,8.34
2019-02-10T01:15:36.829Z,8.32
2019-02-10T01:16:36.768Z,8.27
2019-02-10T01:17:36.758Z,8.29
2019-02-10T01:18:36.733Z,8.25
2019-02-10T01:19:36.728Z,8.22
2019-02-10T01:20:36.764Z,8.28
2019-02-10T01:21:36.739Z,8.24
2019-02-10T01:22:36.704Z,8.25
2019-02-10T01:23:36.701Z,8.25
2019-02-10T01:24:36.668Z,8.28
2019-02-10T01:25:36.667Z,8.18
2019-02-10T01:26:36.903Z,8.24
2019-02-10T01:27:36.635Z,8.20
2019-02-10T01:28:36.843Z,8.21
2019-02-10T01:29:36.667Z,8.12
2019-02-10T01:30:36.608Z,8.12
2019-02-10T01:31:36.973Z,8.10
2019-02-10T01:32:37.604Z,8.13
2019-02-10T01:33:36.598Z,8.10
2019-02-10T01:34:36.561Z,8.20
2019-02-10T01:35:36.592Z,8.14
2019-02-10T01:36:36.899Z,8.14
2019-02-10T01:37:36.741Z,8.12
2019-02-10T01:38:36.523Z,8.04
2019-02-10T01:39:36.577Z,8.13
2019-02-10T01:40:36.603Z,8.12
2019-02-10T01:41:36.526Z,8.07
2019-02-10T01:42:36.485Z,8.07
2019-02-10T01:43:36.541Z,8.00
2019-02-10T01:44:36.474Z,8.04
2019-02-10T01:45:36.457Z,8.03
2019-02-10T01:46:36.450Z,8.07
2019-02-10T01:47:36.453Z,8.03
2019-02-10T01:48:36.416Z,7.94
2019-02-10T01:49:36.487Z,8.00
2019-02-10T01:50:36.392Z,8.06
2019-02-10T01:51:36.385Z,8.06
2019-02-10T01:52:36.399Z,8.02
2019-02-10T01:53:36.357Z,8.03
2019-02-10T01:54:36.367Z,8.02
2019-02-10T01:55:36.344Z,7.96
2019-02-10T01:56:36.356Z,8.04
2019-02-10T01:57:36.415Z,8.04
2019-02-10T01:58:36.338Z,8.04
2019-02-10T01:59:36.296Z,8.00
2019-02-10T02:00:36.291Z,8.02
2019-02-10T02:01:36.273Z,8.02
2019-02-10T02:02:36.307Z,8.06
2019-02-10T02:03:36.253Z,8.00
2019-02-10T02:04:36.260Z,8.03
2019-02-10T02:05:36.238Z,8.02
2019-02-10T02:06:36.322Z,8.03
2019-02-10T02:07:36.250Z,7.99
2019-02-10T02:08:36.212Z,8.00
2019-02-10T02:09:36.219Z,8.04
2019-02-10T02:10:36.178Z,8.06
2019-02-10T02:11:36.177Z,8.04
2019-02-10T02:12:44.878Z,8.04
2019-02-10T02:13:36.537Z,8.09
2019-02-10T02:14:36.144Z,8.03
2019-02-10T02:15:36.124Z,8.03
2019-02-10T02:16:36.118Z,8.13
2019-02-10T02:17:36.145Z,8.02
2019-02-10T02:18:36.098Z,8.02
2019-02-10T02:19:36.106Z,8.07
2019-02-10T02:20:36.348Z,8.10
2019-02-10T02:21:36.064Z,8.04
2019-02-10T02:22:36.105Z,8.17
2019-02-10T02:23:36.044Z,8.14
2019-02-10T02:24:36.053Z,8.20
2019-02-10T02:25:36.025Z,8.17
2019-02-10T02:26:36.130Z,8.22
2019-02-10T02:27:36.001Z,8.22
2019-02-10T02:28:36.064Z,8.09
2019-02-10T02:29:36.005Z,8.20
2019-02-10T02:30:35.983Z,8.22
2019-02-10T02:31:35.961Z,8.13
2019-02-10T02:32:36.035Z,8.20
2019-02-10T02:33:35.966Z,8.13
2019-02-10T02:34:35.934Z,8.14
2019-02-10T02:35:35.945Z,8.09
2019-02-10T02:36:35.915Z,8.14
2019-02-10T02:37:35.893Z,8.14
2019-02-10T02:38:35.936Z,8.04
2019-02-10T02:39:35.876Z,8.00
2019-02-10T02:40:35.901Z,8.03
2019-02-10T02:41:35.847Z,7.92
2019-02-10T02:42:35.852Z,7.86
2019-02-10T02:43:35.901Z,7.82
2019-02-10T02:44:35.832Z,7.77
2019-02-10T02:45:36.080Z,7.67
2019-02-10T02:46:35.798Z,7.77
2019-02-10T02:47:35.824Z,7.62
2019-02-10T02:48:35.814Z,7.50
2019-02-10T02:49:35.789Z,7.54
2019-02-10T02:50:35.764Z,7.57
2019-02-10T02:51:35.756Z,7.50
2019-02-10T02:52:35.874Z,7.33
2019-02-10T02:53:35.731Z,7.44
2019-02-10T02:54:35.739Z,7.39
2019-02-10T02:55:35.831Z,7.27
2019-02-10T02:56:35.684Z,7.23
2019-02-10T02:57:35.707Z,7.26
2019-02-10T02:58:35.668Z,7.30
2019-02-10T02:59:35.697Z,7.24
2019-02-10T03:00:35.715Z,7.33
2019-02-10T03:01:35.635Z,7.23
2019-02-10T03:02:35.624Z,7.30
2019-02-10T03:03:35.617Z,7.21
2019-02-10T03:04:35.866Z,7.14
2019-02-10T03:05:35.654Z,7.12
2019-02-10T03:06:35.583Z,7.15
2019-02-10T03:07:35.608Z,7.08
2019-02-10T03:08:35.574Z,7.18
2019-02-10T03:09:35.580Z,7.21
2019-02-10T03:10:35.536Z,7.09
2019-02-10T03:11:35.711Z,7.18
2019-02-10T03:12:35.525Z,7.09
2019-02-10T03:13:35.505Z,7.09
2019-02-10T03:14:35.519Z,7.04
2019-02-10T03:15:35.544Z,7.08
2019-02-10T03:16:35.571Z,7.09
2019-02-10T03:17:35.494Z,7.08
2019-02-10T03:18:35.450Z,7.04
2019-02-10T03:19:35.617Z,7.08
2019-02-10T03:20:35.434Z,7.04
2019-02-10T03:21:35.439Z,7.09
2019-02-10T03:22:35.410Z,7.05
2019-02-10T03:23:35.425Z,7.07
2019-02-10T03:24:35.436Z,7.04
2019-02-10T03:25:35.390Z,7.05
2019-02-10T03:26:35.364Z,7.09
2019-02-10T03:27:35.359Z,7.09
2019-02-10T03:28:35.398Z,6.97
2019-02-10T03:29:35.353Z,7.08
2019-02-10T03:30:35.470Z,6.96
2019-02-10T03:31:35.345Z,7.00
2019-02-10T03:32:35.593Z,7.07
2019-02-10T03:33:35.293Z,6.99
2019-02-10T03:34:35.296Z,6.96
2019-02-10T03:35:35.395Z,6.96
2019-02-10T03:36:35.272Z,6.89
2019-02-10T03:37:35.260Z,7.05
2019-02-10T03:38:35.255Z,6.90
2019-02-10T03:39:35.319Z,6.90
2019-02-10T03:40:35.314Z,6.91
2019-02-10T03:41:35.220Z,6.89
2019-02-10T03:42:35.197Z,6.94
2019-02-10T03:43:35.191Z,6.91
2019-02-10T03:44:35.247Z,6.89
2019-02-10T03:45:35.380Z,6.83
2019-02-10T03:46:35.176Z,6.91
2019-02-10T03:47:35.146Z,6.82
2019-02-10T03:48:35.151Z,6.89
2019-02-10T03:49:35.121Z,6.90
2019-02-10T03:50:35.159Z,6.79
2019-02-10T03:51:35.105Z,6.91
2019-02-10T03:52:35.110Z,6.87
2019-02-10T03:53:35.089Z,6.86
2019-02-10T03:54:35.122Z,6.82
2019-02-10T03:55:35.072Z,6.82
2019-02-10T03:56:35.226Z,6.86
2019-02-10T03:57:35.039Z,6.91
2019-02-10T03:58:35.032Z,6.86
2019-02-10T03:59:35.048Z,6.93
2019-02-10T04:00:35.018Z,6.89
2019-02-10T04:01:35.040Z,6.81
2019-02-10T04:02:35.050Z,6.89
2019-02-10T04:03:34.970Z,6.89
2019-02-10T04:04:34.969Z,6.91
2019-02-10T04:05:34.953Z,6.90
2019-02-10T04:06:34.979Z,6.81
2019-02-10T04:07:36.431Z,6.93
2019-02-10T04:08:34.945Z,6.96
2019-02-10T04:09:34.907Z,6.91
2019-02-10T04:10:34.973Z,6.89
2019-02-10T04:11:34.962Z,6.90
2019-02-10T04:12:34.883Z,6.93
2019-02-10T04:13:34.883Z,6.93
2019-02-10T04:14:34.863Z,7.01
2019-02-10T04:15:34.843Z,6.93
2019-02-10T04:16:34.881Z,6.97
2019-02-10T04:17:34.847Z,7.00
2019-02-10T04:18:34.927Z,6.99
2019-02-10T04:19:34.798Z,6.99
2019-02-10T04:20:34.796Z,7.00
2019-02-10T04:21:34.780Z,7.04
2019-02-10T04:22:34.795Z,7.04
2019-02-10T04:23:34.762Z,6.97
2019-02-10T04:24:34.770Z,6.97
2019-02-10T04:25:34.761Z,7.00
2019-02-10T04:26:34.728Z,6.94
2019-02-10T04:27:34.769Z,7.08
2019-02-10T04:28:34.700Z,7.08
2019-02-10T04:29:34.699Z,7.07
2019-02-10T04:30:34.704Z,7.07
2019-02-10T04:31:34.676Z,7.04
2019-02-10T04:32:34.750Z,7.14
2019-02-10T04:33:34.649Z,7.21
2019-02-10T04:34:34.668Z,7.15
2019-02-10T04:35:34.660Z,7.19
2019-02-10T04:36:34.618Z,7.15
2019-02-10T04:37:34.683Z,7.11
2019-02-10T04:38:34.607Z,7.24
2019-02-10T04:39:34.610Z,7.18
2019-02-10T04:40:34.592Z,7.16
2019-02-10T04:41:34.570Z,7.21
2019-02-10T04:42:34.576Z,7.24
2019-02-10T04:43:34.545Z,7.24
2019-02-10T04:44:34.577Z,7.18
2019-02-10T04:45:34.529Z,7.26
2019-02-10T04:46:34.559Z,7.34
2019-02-10T04:47:34.596Z,7.24
2019-02-10T04:48:34.490Z,7.24
2019-02-10T04:49:34.490Z,7.27
2019-02-10T04:50:34.468Z,7.33
2019-02-10T04:51:34.525Z,7.26
2019-02-10T04:52:34.450Z,7.29
2019-02-10T04:53:34.480Z,7.39
2019-02-10T04:54:34.422Z,7.44
2019-02-10T04:55:34.564Z,7.44
2019-02-10T04:56:34.404Z,7.37
2019-02-10T04:57:34.393Z,7.41
2019-02-10T04:58:34.439Z,7.41
2019-02-10T04:59:34.455Z,7.41
2019-02-10T05:00:34.366Z,7.45
2019-02-10T05:01:34.362Z,7.48
2019-02-10T05:02:34.373Z,7.37
2019-02-10T05:03:34.378Z,7.47
2019-02-10T05:04:34.316Z,7.51
2019-02-10T05:05:34.392Z,7.51
2019-02-10T05:06:34.387Z,7.55
2019-02-10T05:07:34.286Z,7.55
2019-02-10T05:08:34.314Z,7.55
2019-02-10T05:09:34.278Z,7.54
2019-02-10T05:10:34.257Z,7.52
2019-02-10T05:11:34.261Z,7.57
2019-02-10T05:12:34.305Z,7.63
2019-02-10T05:13:34.221Z,7.63
2019-02-10T05:14:34.248Z,7.73
2019-02-10T05:15:34.207Z,7.73
2019-02-10T05:16:34.191Z,7.70
2019-02-10T05:17:34.183Z,7.74
2019-02-10T05:18:34.206Z,7.77
2019-02-10T05:19:34.187Z,7.77
2019-02-10T05:20:34.158Z,7.82
2019-02-10T05:21:34.283Z,7.82
2019-02-10T05:22:34.129Z,7.84
2019-02-10T05:23:34.119Z,7.82
2019-02-10T05:24:34.150Z,7.86
2019-02-10T05:25:34.156Z,7.84
2019-02-10T05:26:34.118Z,7.88
2019-02-10T05:27:34.217Z,7.85
2019-02-10T05:28:34.066Z,7.85
2019-02-10T05:29:34.123Z,7.91
2019-02-10T05:30:34.053Z,7.91
2019-02-10T05:31:34.063Z,7.96
2019-02-10T05:32:34.017Z,7.91
2019-02-10T05:33:34.021Z,7.95
2019-02-10T05:34:34.049Z,8.02
2019-02-10T05:35:34.037Z,7.99
2019-02-10T05:36:33.985Z,8.03
2019-02-10T05:37:33.975Z,8.06
2019-02-10T05:38:33.965Z,8.06
2019-02-10T05:39:33.983Z,8.02
2019-02-10T05:40:33.939Z,8.04
2019-02-10T05:41:33.990Z,8.02
2019-02-10T05:42:33.912Z,8.03
2019-02-10T05:43:33.922Z,8.12
2019-02-10T05:44:33.962Z,8.10
2019-02-10T05:45:33.901Z,8.18
2019-02-10T05:46:33.905Z,8.14
2019-02-10T05:47:33.879Z,8.22
2019-02-10T05:48:33.891Z,8.22
2019-02-10T05:49:33.869Z,8.27
2019-02-10T05:50:33.856Z,8.29
2019-02-10T05:51:33.838Z,8.25
2019-02-10T05:52:33.812Z,8.39
2019-02-10T05:53:33.807Z,8.37
2019-02-10T05:54:33.830Z,8.42
2019-02-10T05:55:33.824Z,8.39
2019-02-10T05:56:33.808Z,8.49
2019-02-10T05:57:33.797Z,8.47
2019-02-10T05:58:33.749Z,8.43
2019-02-10T05:59:33.737Z,8.52
2019-02-10T06:00:33.761Z,8.55
2019-02-10T06:01:33.712Z,8.55
2019-02-10T06:02:33.793Z,8.60
2019-02-10T06:03:33.777Z,8.58
2019-02-10T06:04:33.681Z,8.58
2019-02-10T06:05:33.679Z,8.63
2019-02-10T06:06:33.733Z,8.67
2019-02-10T06:07:33.646Z,8.57
2019-02-10T06:08:33.644Z,8.60
2019-02-10T06:09:33.694Z,8.65
2019-02-10T06:10:33.617Z,8.67
2019-02-10T06:11:33.630Z,8.57
2019-02-10T06:12:33.769Z,8.68
2019-02-10T06:13:33.610Z,8.61
2019-02-10T06:14:33.605Z,8.60
2019-02-10T06:15:33.621Z,8.65
2019-02-10T06:16:33.583Z,8.65
2019-02-10T06:17:33.565Z,8.70
2019-02-10T06:18:33.548Z,8.76
2019-02-10T06:19:33.534Z,8.71
2019-02-10T06:20:33.513Z,8.76
2019-02-10T06:21:33.538Z,8.67
2019-02-10T06:22:33.493Z,8.73
2019-02-10T06:23:33.483Z,8.68
2019-02-10T06:24:33.467Z,8.68
2019-02-10T06:25:33.513Z,8.70
2019-02-10T06:26:33.487Z,8.73
2019-02-10T06:27:33.473Z,8.73
2019-02-10T06:28:33.437Z,8.68
2019-02-10T06:29:33.429Z,8.70
2019-02-10T06:30:33.404Z,8.68
2019-02-10T06:31:33.396Z,8.70
2019-02-10T06:32:33.407Z,8.73
2019-02-10T06:33:36.399Z,8.68
2019-02-10T06:34:33.369Z,8.86
2019-02-10T06:35:33.377Z,8.82
2019-02-10T06:36:33.345Z,8.89
2019-02-10T06:37:33.502Z,8.82
2019-02-10T06:38:33.319Z,8.83
2019-02-10T06:39:33.310Z,8.86
2019-02-10T06:40:33.307Z,8.94
2019-02-10T06:41:33.306Z,8.86
2019-02-10T06:42:33.314Z,8.80
2019-02-10T06:43:33.263Z,8.89
2019-02-10T06:44:33.273Z,8.85
2019-02-10T06:45:33.238Z,8.93
2019-02-10T06:46:33.229Z,8.96
2019-02-10T06:47:33.258Z,8.91
2019-02-10T06:48:33.230Z,8.91
2019-02-10T06:49:33.208Z,8.89
2019-02-10T06:50:33.237Z,8.94
2019-02-10T06:51:33.178Z,8.88
2019-02-10T06:52:33.255Z,8.96
2019-02-10T06:53:34.763Z,8.96
2019-02-10T06:54:33.190Z,8.97
2019-02-10T06:55:33.150Z,9.03
2019-02-10T06:56:33.142Z,9.10
2019-02-10T06:57:33.135Z,9.06
2019-02-10T06:58:33.177Z,9.06
2019-02-10T06:59:33.181Z,9.13
2019-02-10T07:00:33.129Z,9.16
2019-02-10T07:01:33.156Z,9.13
2019-02-10T07:02:33.102Z,9.15
2019-02-10T07:03:33.048Z,9.15
2019-02-10T07:04:33.041Z,9.27
2019-02-10T07:05:33.056Z,9.27
2019-02-10T07:06:33.021Z,9.24
2019-02-10T07:07:33.037Z,9.26
2019-02-10T07:08:33.073Z,9.30
2019-02-10T07:09:33.003Z,9.30
2019-02-10T07:10:32.979Z,9.30
2019-02-10T07:11:32.963Z,9.34
2019-02-10T07:12:32.960Z,9.38
2019-02-10T07:13:33.014Z,9.32
2019-02-10T07:14:32.972Z,9.34
2019-02-10T07:15:32.924Z,9.35
2019-02-10T07:16:32.934Z,9.38
2019-02-10T07:17:32.901Z,9.42
2019-02-10T07:18:32.975Z,9.40
2019-02-10T07:19:32.882Z,9.45
2019-02-10T07:20:32.892Z,9.44
2019-02-10T07:21:32.899Z,9.40
2019-02-10T07:22:32.853Z,9.44
2019-02-10T07:23:32.893Z,9.49
2019-02-10T07:24:32.823Z,9.42
2019-02-10T07:25:32.825Z,9.53
2019-02-10T07:26:32.801Z,9.44
2019-02-10T07:27:32.799Z,9.53
2019-02-10T07:28:32.839Z,9.52
2019-02-10T07:29:32.912Z,9.45
2019-02-10T07:30:32.792Z,9.55
2019-02-10T07:31:32.755Z,9.45
2019-02-10T07:32:32.744Z,9.48
2019-02-10T07:33:32.756Z,9.56
2019-02-10T07:34:32.778Z,9.56
2019-02-10T07:35:32.705Z,9.63
2019-02-10T07:36:32.710Z,9.68
2019-02-10T07:37:32.691Z,9.77
2019-02-10T07:38:38.452Z,9.81
2019-02-10T07:39:33.701Z,9.77
2019-02-10T07:40:32.670Z,9.86
2019-02-10T07:41:32.639Z,9.80
2019-02-10T07:42:32.678Z,9.83
2019-02-10T07:43:32.628Z,9.85
2019-02-10T07:44:32.647Z,9.81
2019-02-10T07:45:32.699Z,9.80
2019-02-10T07:46:32.589Z,9.80
2019-02-10T07:47:32.586Z,9.81
2019-02-10T07:48:32.648Z,9.91
2019-02-10T07:49:32.560Z,9.85
2019-02-10T07:50:32.559Z,9.86
2019-02-10T07:51:32.559Z,9.86
2019-02-10T07:52:32.612Z,9.85
2019-02-10T07:53:32.530Z,9.88
2019-02-10T07:54:32.504Z,9.86
2019-02-10T07:55:32.506Z,9.88
2019-02-10T07:56:32.519Z,9.96
2019-02-10T07:57:32.499Z,9.95
2019-02-10T07:58:32.465Z,10.06
2019-02-10T07:59:32.539Z,10.06
2019-02-10T08:00:32.450Z,10.07
2019-02-10T08:01:32.464Z,10.10
2019-02-10T08:02:32.414Z,10.13
2019-02-10T08:03:32.449Z,10.10
2019-02-10T08:04:32.411Z,10.10
2019-02-10T08:05:32.410Z,10.16
2019-02-10T08:06:32.383Z,10.07
2019-02-10T08:07:32.426Z,10.20
2019-02-10T08:08:32.377Z,10.18
2019-02-10T08:09:32.381Z,10.22
2019-02-10T08:10:32.330Z,10.18
2019-02-10T08:11:32.402Z,10.25
2019-02-10T08:12:32.538Z,10.22
2019-02-10T08:13:33.192Z,10.24
2019-02-10T08:14:32.310Z,10.35
2019-02-10T08:15:32.321Z,10.34
2019-02-10T08:16:32.266Z,10.36
2019-02-10T08:17:32.312Z,10.38
2019-02-10T08:18:32.300Z,10.43
2019-02-10T08:19:32.244Z,10.46
2019-02-10T08:20:32.232Z,10.47
2019-02-10T08:21:32.218Z,10.43
2019-02-10T08:22:32.275Z,10.46
2019-02-10T08:23:32.212Z,10.55
2019-02-10T08:24:32.188Z,10.46
2019-02-10T08:25:32.183Z,10.46
2019-02-10T08:26:32.229Z,10.57
2019-02-10T08:27:32.237Z,10.49
2019-02-10T08:28:32.172Z,10.47
2019-02-10T08:29:32.171Z,10.58
2019-02-10T08:30:32.134Z,10.55
2019-02-10T08:31:32.117Z,10.73
2019-02-10T08:32:32.100Z,10.66
2019-02-10T08:33:32.380Z,10.73
2019-02-10T08:34:32.083Z,10.75
2019-02-10T08:35:32.709Z,10.75
2019-02-10T08:36:32.061Z,10.78
2019-02-10T08:37:32.064Z,10.73
2019-02-10T08:38:32.102Z,10.76
2019-02-10T08:39:32.042Z,10.76
2019-02-10T08:40:32.027Z,10.83
2019-02-10T08:41:32.036Z,10.86
2019-02-10T08:42:32.001Z,10.81
2019-02-10T08:43:32.033Z,10.81
2019-02-10T08:44:32.037Z,10.81
2019-02-10T08:45:31.968Z,10.78
2019-02-10T08:46:31.976Z,10.73
2019-02-10T08:47:33.674Z,10.68
2019-02-10T08:48:31.972Z,10.80
2019-02-10T08:49:31.950Z,10.73
2019-02-10T08:50:31.908Z,10.75
2019-02-10T08:51:31.897Z,10.76
2019-02-10T08:52:31.949Z,10.78
2019-02-10T08:53:31.882Z,10.70
2019-02-10T08:54:31.884Z,10.72
2019-02-10T08:55:31.875Z,10.78
2019-02-10T08:56:31.852Z,10.75
2019-02-10T08:57:31.840Z,10.81
2019-02-10T08:58:31.823Z,10.76
2019-02-10T08:59:31.838Z,10.70
2019-02-10T09:00:31.798Z,10.76
2019-02-10T09:01:31.805Z,10.80
2019-02-10T09:02:31.829Z,10.76
2019-02-10T09:03:31.806Z,10.81
2019-02-10T09:04:31.788Z,10.75
2019-02-10T09:05:31.746Z,10.75
2019-02-10T09:06:31.765Z,10.75
2019-02-10T09:07:31.768Z,10.73
2019-02-10T09:08:31.728Z,10.76
2019-02-10T09:09:31.814Z,10.75
2019-02-10T09:10:31.692Z,10.80
2019-02-10T09:11:31.683Z,10.75
2019-02-10T09:12:31.673Z,10.73
2019-02-10T09:13:31.667Z,10.75
2019-02-10T09:14:31.740Z,10.72
2019-02-10T09:15:31.656Z,10.72
2019-02-10T09:16:31.647Z,10.73
2019-02-10T09:17:31.639Z,10.65
2019-02-10T09:18:31.645Z,10.70
2019-02-10T09:19:31.675Z,10.63
2019-02-10T09:20:31.628Z,10.73
2019-02-10T09:21:31.579Z,10.68
2019-02-10T09:22:31.616Z,10.68
2019-02-10T09:23:31.561Z,10.69
2019-02-10T09:24:31.599Z,10.63
2019-02-10T09:25:31.562Z,10.69
2019-02-10T09:26:31.555Z,10.70
2019-02-10T09:27:31.565Z,10.69
2019-02-10T09:28:31.508Z,10.55
2019-02-10T09:29:31.492Z,10.55
2019-02-10T09:30:31.482Z,10.62
2019-02-10T09:31:33.182Z,10.54
2019-02-10T09:32:31.550Z,10.51
2019-02-10T09:33:31.484Z,10.52
2019-02-10T09:34:31.448Z,10.39
2019-02-10T09:35:31.455Z,10.44
2019-02-10T09:36:31.463Z,10.46
2019-02-10T09:37:31.721Z,10.52
2019-02-10T09:38:31.516Z,10.46
2019-02-10T09:39:31.411Z,10.52
2019-02-10T09:40:31.408Z,10.51
2019-02-10T09:41:31.387Z,10.39
2019-02-10T09:42:31.441Z,10.39
2019-02-10T09:43:31.338Z,10.47
2019-02-10T09:44:31.346Z,10.42
2019-02-10T09:45:31.547Z,10.38
2019-02-10T09:46:31.329Z,10.43
2019-02-10T09:47:31.341Z,10.44
2019-02-10T09:48:31.352Z,10.39
2019-02-10T09:49:31.307Z,10.46
2019-02-10T09:50:31.270Z,10.42
2019-02-10T09:51:31.255Z,10.38
2019-02-10T09:52:31.288Z,10.43
2019-02-10T09:53:31.378Z,10.43
2019-02-10T09:54:31.257Z,10.35
2019-02-10T09:55:31.254Z,10.42
2019-02-10T09:56:31.204Z,10.36
2019-02-10T09:57:31.305Z,10.39
2019-02-10T09:58:31.188Z,10.31
2019-02-10T09:59:31.175Z,10.36
2019-02-10T10:00:31.189Z,10.32
2019-02-10T10:01:31.156Z,10.32
2019-02-10T10:02:31.283Z,10.34
2019-02-10T10:03:31.127Z,10.35
2019-02-10T10:04:31.231Z,10.35
2019-02-10T10:05:31.120Z,10.34
2019-02-10T10:06:31.132Z,10.35
2019-02-10T10:07:31.084Z,10.34
2019-02-10T10:08:31.112Z,10.35
2019-02-10T10:09:31.498Z,10.35
2019-02-10T10:10:31.108Z,10.35
2019-02-10T10:11:31.062Z,10.31
2019-02-10T10:12:31.064Z,10.34
2019-02-10T10:13:31.152Z,10.35
2019-02-10T10:14:31.216Z,10.32
2019-02-10T10:15:31.016Z,10.35
2019-02-10T10:16:31.209Z,10.18
2019-02-10T10:17:30.980Z,10.34
2019-02-10T10:18:30.966Z,10.29
2019-02-10T10:19:31.059Z,10.25
2019-02-10T10:20:30.950Z,10.32
2019-02-10T10:21:30.938Z,10.29
2019-02-10T10:22:30.957Z,10.26
2019-02-10T10:23:30.960Z,10.31
2019-02-10T10:24:30.970Z,10.36
2019-02-10T10:25:30.922Z,10.28
2019-02-10T10:26:30.881Z,10.34
2019-02-10T10:27:30.877Z,10.34
2019-02-10T10:28:30.876Z,10.31
2019-02-10T10:29:30.897Z,10.34
2019-02-10T10:30:30.894Z,10.32
2019-02-10T10:31:30.831Z,10.32
2019-02-10T10:32:30.841Z,10.38
2019-02-10T10:33:31.994Z,10.43
2019-02-10T10:34:30.836Z,10.32
2019-02-10T10:35:30.919Z,10.35
2019-02-10T10:36:30.796Z,10.43
2019-02-10T10:37:30.778Z,10.38
2019-02-10T10:38:30.759Z,10.42
2019-02-10T10:39:30.794Z,10.44
2019-02-10T10:40:30.769Z,10.42
2019-02-10T10:41:30.724Z,10.35
2019-02-10T10:42:30.924Z,10.39
2019-02-10T10:43:30.697Z,10.44
2019-02-10T10:44:30.692Z,10.47
2019-02-10T10:45:30.751Z,10.39
2019-02-10T10:46:30.771Z,10.47
2019-02-10T10:47:30.747Z,10.44
2019-02-10T10:48:30.642Z,10.51
2019-02-10T10:49:30.675Z,10.49
2019-02-10T10:50:30.729Z,10.42
2019-02-10T10:51:30.633Z,10.44
2019-02-10T10:52:30.636Z,10.51
2019-02-10T10:53:30.590Z,10.38
2019-02-10T10:54:30.603Z,10.39
2019-02-10T10:55:30.642Z,10.42
2019-02-10T10:56:30.566Z,10.44
2019-02-10T10:57:30.573Z,10.46
2019-02-10T10:58:30.640Z,10.51
2019-02-10T10:59:30.540Z,10.43
2019-02-10T11:00:30.515Z,10.46
2019-02-10T11:01:30.548Z,10.42
2019-02-10T11:02:30.513Z,10.60
2019-02-10T11:03:30.505Z,10.42
2019-02-10T11:04:30.517Z,10.52
2019-02-10T11:05:30.484Z,10.42
2019-02-10T11:06:30.522Z,10.42
2019-02-10T11:07:30.535Z,10.35
2019-02-10T11:08:30.453Z,10.39
2019-02-10T11:09:35.417Z,10.46
2019-02-10T11:10:31.405Z,10.38
2019-02-10T11:11:30.399Z,10.44
2019-02-10T11:12:30.420Z,10.49
2019-02-10T11:13:30.375Z,10.42
2019-02-10T11:14:30.369Z,10.51
2019-02-10T11:15:30.361Z,10.47
2019-02-10T11:16:30.398Z,10.52
2019-02-10T11:17:30.365Z,10.51
2019-02-10T11:18:30.321Z,10.42
2019-02-10T11:19:30.336Z,10.42
2019-02-10T11:20:30.345Z,10.44
2019-02-10T11:21:30.339Z,10.58
2019-02-10T11:22:30.355Z,10.57
2019-02-10T11:23:30.265Z,10.44
2019-02-10T11:24:30.363Z,10.47
2019-02-10T11:25:30.248Z,10.49
2019-02-10T11:26:30.269Z,10.52
2019-02-10T11:27:30.370Z,10.44
2019-02-10T11:28:30.249Z,10.49
2019-02-10T11:29:30.212Z,10.44
2019-02-10T11:30:31.114Z,10.46
2019-02-10T11:31:30.192Z,10.49
2019-02-10T11:32:30.214Z,10.49
2019-02-10T11:33:30.254Z,10.55
2019-02-10T11:34:30.143Z,10.55
2019-02-10T11:35:30.236Z,10.52
2019-02-10T11:36:30.141Z,10.52
2019-02-10T11:37:31.156Z,10.54
2019-02-10T11:38:30.137Z,10.62
2019-02-10T11:39:30.091Z,10.60
2019-02-10T11:40:30.105Z,10.68
2019-02-10T11:41:30.070Z,10.65
2019-02-10T11:42:30.149Z,10.62
2019-02-10T11:43:30.067Z,10.68
2019-02-10T11:44:30.062Z,10.69
2019-02-10T11:45:30.044Z,10.73
2019-02-10T11:46:30.016Z,10.86
2019-02-10T11:47:30.024Z,10.80
2019-02-10T11:48:30.037Z,10.84
2019-02-10T11:49:29.985Z,10.76
2019-02-10T11:50:29.994Z,10.80
2019-02-10T11:51:29.956Z,10.86
2019-02-10T11:52:29.946Z,10.90
2019-02-10T11:53:29.981Z,10.98
2019-02-10T11:54:29.945Z,10.93
2019-02-10T11:55:29.915Z,11.02
2019-02-10T11:56:29.911Z,10.94
2019-02-10T11:57:29.891Z,11.03
2019-02-10T11:58:29.984Z,11.01
2019-02-10T11:59:29.878Z,11.02
2019-02-10T12:00:29.886Z,10.87
2019-02-10T12:01:29.936Z,11.06
2019-02-10T12:02:37.596Z,11.08
2019-02-10T12:03:30.912Z,10.95
2019-02-10T12:04:29.821Z,10.90
2019-02-10T12:05:29.813Z,10.98
2019-02-10T12:06:29.858Z,10.94
2019-02-10T12:07:29.785Z,10.99
2019-02-10T12:08:35.731Z,10.93
2019-02-10T12:09:30.927Z,10.99
2019-02-10T12:10:29.921Z,11.01
2019-02-10T12:11:29.746Z,11.08
2019-02-10T12:12:29.732Z,11.05
2019-02-10T12:13:29.869Z,11.06
2019-02-10T12:14:29.796Z,11.06
2019-02-10T12:15:29.707Z,11.16
2019-02-10T12:16:29.760Z,11.08
2019-02-10T12:17:29.716Z,11.09
2019-02-10T12:18:29.706Z,11.12
2019-02-10T12:19:31.383Z,11.17
2019-02-10T12:20:30.362Z,11.23
2019-02-10T12:21:29.761Z,11.21
2019-02-10T12:22:30.449Z,11.17
2019-02-10T12:23:29.613Z,11.21
2019-02-10T12:24:32.526Z,11.23
2019-02-10T12:25:29.604Z,11.21
2019-02-10T12:26:29.658Z,11.30
2019-02-10T12:27:29.586Z,11.30
2019-02-10T12:28:29.557Z,11.20
2019-02-10T12:29:29.594Z,11.28
2019-02-10T12:30:29.602Z,11.21
2019-02-10T12:31:29.546Z,11.21
2019-02-10T12:32:29.567Z,11.13
2019-02-10T12:33:29.511Z,11.17
2019-02-10T12:34:29.550Z,11.16
2019-02-10T12:35:29.677Z,10.90
2019-02-10T12:36:29.471Z,10.99
2019-02-10T12:37:32.472Z,10.94
2019-02-10T12:38:29.458Z,10.91
2019-02-10T12:39:29.447Z,10.93
2019-02-10T12:40:29.468Z,10.94
2019-02-10T12:41:29.515Z,10.88
2019-02-10T12:42:29.457Z,10.88
2019-02-10T12:43:29.393Z,10.84
2019-02-10T12:44:29.387Z,10.86
2019-02-10T12:45:29.445Z,10.80
2019-02-10T12:46:29.364Z,10.81
2019-02-10T12:47:29.358Z,10.73
2019-02-10T12:48:29.366Z,10.75
2019-02-10T12:49:29.328Z,10.73
2019-02-10T12:50:29.375Z,10.75
2019-02-10T12:51:29.329Z,10.69
2019-02-10T12:52:29.305Z,10.83
2019-02-10T12:53:29.301Z,10.84
2019-02-10T12:54:29.324Z,10.88
2019-02-10T12:55:29.302Z,10.93
2019-02-10T12:56:29.253Z,11.06
2019-02-10T12:57:29.247Z,11.03
2019-02-10T12:58:29.245Z,10.98
2019-02-10T12:59:29.221Z,11.05
2019-02-10T13:00:29.222Z,10.95
2019-02-10T13:01:29.227Z,11.20
2019-02-10T13:02:29.196Z,11.11
2019-02-10T13:03:29.220Z,11.05
2019-02-10T13:04:29.168Z,11.01
2019-02-10T13:05:29.155Z,11.06
2019-02-10T13:06:29.238Z,11.17
2019-02-10T13:07:29.136Z,11.19
2019-02-10T13:08:29.126Z,11.20